sensor_id;sensor_type;location;lat;lon;timestamp;P1;durP1;ratioP1;P2;durP2;ratioP2
12437;SDS011;6283;51.330;12.374;2022-12-16T00:00:22;25.10;;;14.07;;
12437;SDS011;6283;51.330;12.374;2022-12-16T00:02:48;23.80;;;13.73;;
12437;SDS011;6283;51.330;12.374;2022-12-16T00:05:14;23.00;;;13.83;;
12437;SDS011;6283;51.330;12.374;2022-12-16T00:07:40;26.20;;;14.30;;
12437;SDS011;6283;51.330;12.374;2022-12-16T00:10:06;27.20;;;13.87;;
12437;SDS011;6283;51.330;12.374;2022-12-16T00:12:32;24.77;;;14.23;;
12437;SDS011;6283;51.330;12.374;2022-12-16T00:14:58;29.87;;;14.73;;
12437;SDS011;6283;51.330;12.374;2022-12-16T00:17:23;29.77;;;14.43;;
12437;SDS011;6283;51.330;12.374;2022-12-16T00:19:49;26.57;;;14.17;;
12437;SDS011;6283;51.330;12.374;2022-12-16T00:22:15;25.40;;;13.33;;
12437;SDS011;6283;51.330;12.374;2022-12-16T00:24:40;23.53;;;14.53;;
12437;SDS011;6283;51.330;12.374;2022-12-16T00:27:06;24.00;;;13.77;;
12437;SDS011;6283;51.330;12.374;2022-12-16T00:29:32;26.20;;;13.67;;
12437;SDS011;6283;51.330;12.374;2022-12-16T00:31:57;25.20;;;13.57;;
12437;SDS011;6283;51.330;12.374;2022-12-16T00:34:23;22.83;;;13.10;;
12437;SDS011;6283;51.330;12.374;2022-12-16T00:36:49;24.67;;;13.17;;
12437;SDS011;6283;51.330;12.374;2022-12-16T00:39:14;28.73;;;14.30;;
12437;SDS011;6283;51.330;12.374;2022-12-16T00:41:40;27.77;;;14.83;;
12437;SDS011;6283;51.330;12.374;2022-12-16T00:44:06;27.00;;;15.07;;
12437;SDS011;6283;51.330;12.374;2022-12-16T00:46:31;29.07;;;15.13;;
12437;SDS011;6283;51.330;12.374;2022-12-16T00:48:57;25.83;;;13.00;;
12437;SDS011;6283;51.330;12.374;2022-12-16T00:51:23;29.93;;;14.60;;
12437;SDS011;6283;51.330;12.374;2022-12-16T00:53:48;24.27;;;13.80;;
12437;SDS011;6283;51.330;12.374;2022-12-16T00:56:14;26.83;;;13.90;;
12437;SDS011;6283;51.330;12.374;2022-12-16T00:58:40;26.03;;;14.83;;
12437;SDS011;6283;51.330;12.374;2022-12-16T01:01:06;25.83;;;14.73;;
12437;SDS011;6283;51.330;12.374;2022-12-16T01:03:32;29.53;;;14.90;;
12437;SDS011;6283;51.330;12.374;2022-12-16T01:05:58;32.17;;;15.77;;
12437;SDS011;6283;51.330;12.374;2022-12-16T01:08:24;28.30;;;15.00;;
12437;SDS011;6283;51.330;12.374;2022-12-16T01:10:51;26.47;;;13.27;;
12437;SDS011;6283;51.330;12.374;2022-12-16T01:13:19;32.60;;;15.60;;
12437;SDS011;6283;51.330;12.374;2022-12-16T01:15:45;28.53;;;13.47;;
12437;SDS011;6283;51.330;12.374;2022-12-16T01:18:11;25.63;;;13.47;;
12437;SDS011;6283;51.330;12.374;2022-12-16T01:20:37;32.87;;;15.20;;
12437;SDS011;6283;51.330;12.374;2022-12-16T01:23:03;25.73;;;13.57;;
12437;SDS011;6283;51.330;12.374;2022-12-16T01:25:28;29.07;;;14.63;;
12437;SDS011;6283;51.330;12.374;2022-12-16T01:27:54;28.83;;;15.03;;
12437;SDS011;6283;51.330;12.374;2022-12-16T01:30:20;30.53;;;15.67;;
12437;SDS011;6283;51.330;12.374;2022-12-16T01:32:45;32.43;;;15.17;;
12437;SDS011;6283;51.330;12.374;2022-12-16T01:35:12;32.07;;;14.67;;
12437;SDS011;6283;51.330;12.374;2022-12-16T01:37:38;31.23;;;14.83;;
12437;SDS011;6283;51.330;12.374;2022-12-16T01:40:04;30.17;;;15.27;;
12437;SDS011;6283;51.330;12.374;2022-12-16T01:42:31;27.13;;;13.47;;
12437;SDS011;6283;51.330;12.374;2022-12-16T01:44:57;27.27;;;14.70;;
12437;SDS011;6283;51.330;12.374;2022-12-16T01:48:44;29.50;;;14.00;;
12437;SDS011;6283;51.330;12.374;2022-12-16T01:50:50;27.57;;;14.73;;
12437;SDS011;6283;51.330;12.374;2022-12-16T01:53:20;30.83;;;15.30;;
12437;SDS011;6283;51.330;12.374;2022-12-16T01:55:47;29.53;;;16.07;;
12437;SDS011;6283;51.330;12.374;2022-12-16T01:58:18;34.67;;;15.70;;
12437;SDS011;6283;51.330;12.374;2022-12-16T02:00:47;26.83;;;13.53;;
12437;SDS011;6283;51.330;12.374;2022-12-16T02:03:13;27.57;;;14.50;;
12437;SDS011;6283;51.330;12.374;2022-12-16T02:05:39;21.93;;;13.07;;
12437;SDS011;6283;51.330;12.374;2022-12-16T02:15:50;31.87;;;14.10;;
12437;SDS011;6283;51.330;12.374;2022-12-16T02:18:50;30.80;;;15.00;;
12437;SDS011;6283;51.330;12.374;2022-12-16T02:21:34;34.17;;;15.23;;
12437;SDS011;6283;51.330;12.374;2022-12-16T02:38:32;32.47;;;16.00;;
12437;SDS011;6283;51.330;12.374;2022-12-16T02:41:09;31.90;;;15.87;;
12437;SDS011;6283;51.330;12.374;2022-12-16T02:46:20;34.90;;;15.20;;
12437;SDS011;6283;51.330;12.374;2022-12-16T02:48:51;29.40;;;14.67;;
12437;SDS011;6283;51.330;12.374;2022-12-16T02:51:17;28.03;;;15.97;;
12437;SDS011;6283;51.330;12.374;2022-12-16T02:53:44;34.57;;;15.03;;
12437;SDS011;6283;51.330;12.374;2022-12-16T03:04:37;33.00;;;15.87;;
12437;SDS011;6283;51.330;12.374;2022-12-16T03:07:10;29.40;;;15.33;;
12437;SDS011;6283;51.330;12.374;2022-12-16T03:09:38;29.90;;;14.97;;
12437;SDS011;6283;51.330;12.374;2022-12-16T03:12:06;32.87;;;16.13;;
12437;SDS011;6283;51.330;12.374;2022-12-16T03:14:35;28.40;;;15.80;;
12437;SDS011;6283;51.330;12.374;2022-12-16T03:17:03;32.57;;;15.63;;
12437;SDS011;6283;51.330;12.374;2022-12-16T03:19:29;35.57;;;15.60;;
12437;SDS011;6283;51.330;12.374;2022-12-16T03:22:00;29.93;;;16.27;;
12437;SDS011;6283;51.330;12.374;2022-12-16T03:24:30;26.63;;;14.70;;
12437;SDS011;6283;51.330;12.374;2022-12-16T03:29:43;30.77;;;15.97;;
12437;SDS011;6283;51.330;12.374;2022-12-16T03:32:31;33.30;;;15.93;;
12437;SDS011;6283;51.330;12.374;2022-12-16T03:35:39;30.30;;;15.27;;
12437;SDS011;6283;51.330;12.374;2022-12-16T03:38:09;33.20;;;14.83;;
12437;SDS011;6283;51.330;12.374;2022-12-16T03:40:36;33.73;;;14.80;;
12437;SDS011;6283;51.330;12.374;2022-12-16T03:43:05;31.50;;;15.53;;
12437;SDS011;6283;51.330;12.374;2022-12-16T03:45:34;31.03;;;15.47;;
12437;SDS011;6283;51.330;12.374;2022-12-16T03:48:02;31.93;;;16.00;;
12437;SDS011;6283;51.330;12.374;2022-12-16T03:50:33;28.37;;;14.47;;
12437;SDS011;6283;51.330;12.374;2022-12-16T03:53:00;28.67;;;14.70;;
12437;SDS011;6283;51.330;12.374;2022-12-16T03:55:26;31.43;;;15.07;;
12437;SDS011;6283;51.330;12.374;2022-12-16T03:57:51;29.73;;;15.07;;
12437;SDS011;6283;51.330;12.374;2022-12-16T04:00:18;30.80;;;14.57;;
12437;SDS011;6283;51.330;12.374;2022-12-16T04:02:44;30.43;;;14.97;;
12437;SDS011;6283;51.330;12.374;2022-12-16T04:05:10;27.07;;;14.20;;
12437;SDS011;6283;51.330;12.374;2022-12-16T04:07:35;29.30;;;14.27;;
12437;SDS011;6283;51.330;12.374;2022-12-16T04:10:01;34.13;;;16.03;;
12437;SDS011;6283;51.330;12.374;2022-12-16T04:12:28;31.67;;;15.77;;
12437;SDS011;6283;51.330;12.374;2022-12-16T04:15:12;30.10;;;15.10;;
12437;SDS011;6283;51.330;12.374;2022-12-16T04:17:56;30.13;;;16.23;;
12437;SDS011;6283;51.330;12.374;2022-12-16T04:20:42;30.37;;;14.67;;
12437;SDS011;6283;51.330;12.374;2022-12-16T04:23:30;26.10;;;14.57;;
12437;SDS011;6283;51.330;12.374;2022-12-16T04:26:15;30.20;;;14.97;;
12437;SDS011;6283;51.330;12.374;2022-12-16T04:28:41;25.60;;;14.53;;
12437;SDS011;6283;51.330;12.374;2022-12-16T04:31:07;30.60;;;15.17;;
12437;SDS011;6283;51.330;12.374;2022-12-16T04:33:32;28.00;;;14.93;;
12437;SDS011;6283;51.330;12.374;2022-12-16T04:36:17;30.03;;;14.67;;
12437;SDS011;6283;51.330;12.374;2022-12-16T04:39:01;28.67;;;13.63;;
12437;SDS011;6283;51.330;12.374;2022-12-16T04:41:46;29.33;;;14.90;;
12437;SDS011;6283;51.330;12.374;2022-12-16T04:44:30;30.77;;;14.77;;
12437;SDS011;6283;51.330;12.374;2022-12-16T04:47:14;28.63;;;14.70;;
12437;SDS011;6283;51.330;12.374;2022-12-16T04:49:58;26.77;;;13.73;;
12437;SDS011;6283;51.330;12.374;2022-12-16T04:52:42;27.23;;;13.67;;
12437;SDS011;6283;51.330;12.374;2022-12-16T04:55:26;28.00;;;15.03;;
12437;SDS011;6283;51.330;12.374;2022-12-16T04:58:10;29.87;;;14.50;;
12437;SDS011;6283;51.330;12.374;2022-12-16T05:00:54;30.77;;;15.17;;
12437;SDS011;6283;51.330;12.374;2022-12-16T05:03:38;30.23;;;14.50;;
12437;SDS011;6283;51.330;12.374;2022-12-16T05:06:22;25.03;;;13.70;;
12437;SDS011;6283;51.330;12.374;2022-12-16T05:09:06;26.70;;;13.50;;
12437;SDS011;6283;51.330;12.374;2022-12-16T05:11:50;31.30;;;13.63;;
12437;SDS011;6283;51.330;12.374;2022-12-16T05:14:35;30.03;;;13.67;;
12437;SDS011;6283;51.330;12.374;2022-12-16T05:17:32;29.50;;;13.43;;
12437;SDS011;6283;51.330;12.374;2022-12-16T05:20:16;29.63;;;13.67;;
12437;SDS011;6283;51.330;12.374;2022-12-16T05:23:00;26.90;;;13.97;;
12437;SDS011;6283;51.330;12.374;2022-12-16T05:25:44;24.07;;;13.90;;
12437;SDS011;6283;51.330;12.374;2022-12-16T05:28:29;31.13;;;14.57;;
12437;SDS011;6283;51.330;12.374;2022-12-16T05:31:13;27.53;;;15.00;;
12437;SDS011;6283;51.330;12.374;2022-12-16T05:33:57;30.40;;;14.00;;
12437;SDS011;6283;51.330;12.374;2022-12-16T05:36:41;28.27;;;14.77;;
12437;SDS011;6283;51.330;12.374;2022-12-16T05:39:25;31.40;;;14.40;;
12437;SDS011;6283;51.330;12.374;2022-12-16T05:42:09;25.47;;;13.70;;
12437;SDS011;6283;51.330;12.374;2022-12-16T05:44:53;28.00;;;13.40;;
12437;SDS011;6283;51.330;12.374;2022-12-16T05:47:38;28.20;;;14.53;;
12437;SDS011;6283;51.330;12.374;2022-12-16T05:50:22;25.23;;;13.27;;
12437;SDS011;6283;51.330;12.374;2022-12-16T05:53:06;29.17;;;14.20;;
12437;SDS011;6283;51.330;12.374;2022-12-16T05:55:51;29.10;;;13.20;;
12437;SDS011;6283;51.330;12.374;2022-12-16T05:58:35;30.37;;;14.97;;
12437;SDS011;6283;51.330;12.374;2022-12-16T06:01:19;25.13;;;13.67;;
12437;SDS011;6283;51.330;12.374;2022-12-16T06:04:03;24.17;;;13.57;;
12437;SDS011;6283;51.330;12.374;2022-12-16T06:06:47;25.37;;;13.13;;
12437;SDS011;6283;51.330;12.374;2022-12-16T06:09:31;24.23;;;14.07;;
12437;SDS011;6283;51.330;12.374;2022-12-16T06:12:15;28.17;;;14.57;;
12437;SDS011;6283;51.330;12.374;2022-12-16T06:14:59;26.83;;;13.73;;
12437;SDS011;6283;51.330;12.374;2022-12-16T06:17:47;29.77;;;15.07;;
12437;SDS011;6283;51.330;12.374;2022-12-16T06:20:32;24.93;;;14.20;;
12437;SDS011;6283;51.330;12.374;2022-12-16T06:23:17;22.57;;;14.07;;
12437;SDS011;6283;51.330;12.374;2022-12-16T06:26:01;25.83;;;13.80;;
12437;SDS011;6283;51.330;12.374;2022-12-16T06:28:46;23.50;;;12.97;;
12437;SDS011;6283;51.330;12.374;2022-12-16T06:31:30;25.90;;;13.13;;
12437;SDS011;6283;51.330;12.374;2022-12-16T06:34:15;27.53;;;14.30;;
12437;SDS011;6283;51.330;12.374;2022-12-16T06:36:59;27.73;;;13.53;;
12437;SDS011;6283;51.330;12.374;2022-12-16T06:39:43;27.50;;;12.80;;
12437;SDS011;6283;51.330;12.374;2022-12-16T06:42:27;24.43;;;12.67;;
12437;SDS011;6283;51.330;12.374;2022-12-16T06:45:11;27.43;;;13.63;;
12437;SDS011;6283;51.330;12.374;2022-12-16T06:47:55;25.17;;;14.27;;
12437;SDS011;6283;51.330;12.374;2022-12-16T06:50:39;29.30;;;15.53;;
12437;SDS011;6283;51.330;12.374;2022-12-16T06:53:23;26.70;;;12.93;;
12437;SDS011;6283;51.330;12.374;2022-12-16T06:56:07;27.77;;;15.07;;
12437;SDS011;6283;51.330;12.374;2022-12-16T06:58:51;27.80;;;14.53;;
12437;SDS011;6283;51.330;12.374;2022-12-16T07:01:36;26.43;;;14.53;;
12437;SDS011;6283;51.330;12.374;2022-12-16T07:04:20;30.30;;;14.27;;
12437;SDS011;6283;51.330;12.374;2022-12-16T07:07:04;31.23;;;14.43;;
12437;SDS011;6283;51.330;12.374;2022-12-16T07:09:56;30.40;;;14.13;;
12437;SDS011;6283;51.330;12.374;2022-12-16T07:12:40;30.10;;;15.27;;
12437;SDS011;6283;51.330;12.374;2022-12-16T07:15:24;30.97;;;14.97;;
12437;SDS011;6283;51.330;12.374;2022-12-16T07:18:08;23.23;;;13.10;;
12437;SDS011;6283;51.330;12.374;2022-12-16T07:20:52;29.40;;;14.47;;
12437;SDS011;6283;51.330;12.374;2022-12-16T07:23:36;29.83;;;13.57;;
12437;SDS011;6283;51.330;12.374;2022-12-16T07:26:20;24.70;;;13.53;;
12437;SDS011;6283;51.330;12.374;2022-12-16T07:29:04;29.23;;;14.57;;
12437;SDS011;6283;51.330;12.374;2022-12-16T07:31:48;21.53;;;12.47;;
12437;SDS011;6283;51.330;12.374;2022-12-16T07:34:33;28.33;;;13.97;;
12437;SDS011;6283;51.330;12.374;2022-12-16T07:37:17;22.87;;;13.60;;
12437;SDS011;6283;51.330;12.374;2022-12-16T07:40:01;26.50;;;13.83;;
12437;SDS011;6283;51.330;12.374;2022-12-16T07:42:45;25.23;;;13.23;;
12437;SDS011;6283;51.330;12.374;2022-12-16T07:45:29;29.70;;;13.13;;
12437;SDS011;6283;51.330;12.374;2022-12-16T07:48:14;26.67;;;14.27;;
12437;SDS011;6283;51.330;12.374;2022-12-16T07:50:58;26.17;;;13.70;;
12437;SDS011;6283;51.330;12.374;2022-12-16T07:53:42;26.30;;;12.80;;
12437;SDS011;6283;51.330;12.374;2022-12-16T07:56:26;30.70;;;12.63;;
12437;SDS011;6283;51.330;12.374;2022-12-16T07:59:10;29.10;;;14.10;;
12437;SDS011;6283;51.330;12.374;2022-12-16T08:01:55;23.30;;;13.13;;
12437;SDS011;6283;51.330;12.374;2022-12-16T08:04:39;24.30;;;12.37;;
12437;SDS011;6283;51.330;12.374;2022-12-16T08:07:23;28.50;;;14.43;;
12437;SDS011;6283;51.330;12.374;2022-12-16T08:10:07;25.37;;;12.50;;
12437;SDS011;6283;51.330;12.374;2022-12-16T08:12:57;32.90;;;14.47;;
12437;SDS011;6283;51.330;12.374;2022-12-16T08:15:42;26.03;;;13.30;;
12437;SDS011;6283;51.330;12.374;2022-12-16T08:18:26;26.30;;;13.83;;
12437;SDS011;6283;51.330;12.374;2022-12-16T08:21:10;30.93;;;13.83;;
12437;SDS011;6283;51.330;12.374;2022-12-16T08:23:54;29.73;;;13.87;;
12437;SDS011;6283;51.330;12.374;2022-12-16T08:26:38;27.80;;;14.43;;
12437;SDS011;6283;51.330;12.374;2022-12-16T08:29:22;25.37;;;12.87;;
12437;SDS011;6283;51.330;12.374;2022-12-16T08:32:06;24.47;;;13.10;;
12437;SDS011;6283;51.330;12.374;2022-12-16T08:34:50;28.30;;;14.90;;
12437;SDS011;6283;51.330;12.374;2022-12-16T08:37:34;23.93;;;13.67;;
12437;SDS011;6283;51.330;12.374;2022-12-16T08:40:18;25.53;;;14.17;;
12437;SDS011;6283;51.330;12.374;2022-12-16T08:43:02;27.47;;;13.63;;
12437;SDS011;6283;51.330;12.374;2022-12-16T08:45:46;21.93;;;13.07;;
12437;SDS011;6283;51.330;12.374;2022-12-16T08:48:31;27.47;;;14.00;;
12437;SDS011;6283;51.330;12.374;2022-12-16T08:51:15;23.37;;;13.40;;
12437;SDS011;6283;51.330;12.374;2022-12-16T08:53:59;23.23;;;12.77;;
12437;SDS011;6283;51.330;12.374;2022-12-16T08:56:43;28.20;;;12.30;;
12437;SDS011;6283;51.330;12.374;2022-12-16T08:59:27;22.73;;;13.13;;
12437;SDS011;6283;51.330;12.374;2022-12-16T09:02:11;26.40;;;14.00;;
12437;SDS011;6283;51.330;12.374;2022-12-16T09:04:56;28.87;;;14.10;;
12437;SDS011;6283;51.330;12.374;2022-12-16T09:07:40;24.93;;;13.00;;
12437;SDS011;6283;51.330;12.374;2022-12-16T09:10:24;29.90;;;14.77;;
12437;SDS011;6283;51.330;12.374;2022-12-16T09:13:09;20.57;;;11.77;;
12437;SDS011;6283;51.330;12.374;2022-12-16T09:15:55;25.30;;;13.97;;
12437;SDS011;6283;51.330;12.374;2022-12-16T09:18:39;20.70;;;12.77;;
12437;SDS011;6283;51.330;12.374;2022-12-16T09:21:23;21.47;;;13.17;;
12437;SDS011;6283;51.330;12.374;2022-12-16T09:24:07;28.40;;;13.77;;
12437;SDS011;6283;51.330;12.374;2022-12-16T09:26:51;26.17;;;14.13;;
12437;SDS011;6283;51.330;12.374;2022-12-16T09:29:35;29.70;;;16.47;;
12437;SDS011;6283;51.330;12.374;2022-12-16T09:32:19;27.20;;;15.20;;
12437;SDS011;6283;51.330;12.374;2022-12-16T09:35:03;29.67;;;14.43;;
12437;SDS011;6283;51.330;12.374;2022-12-16T09:37:48;27.97;;;14.80;;
12437;SDS011;6283;51.330;12.374;2022-12-16T09:40:32;27.30;;;15.10;;
12437;SDS011;6283;51.330;12.374;2022-12-16T09:49:41;21.33;;;12.87;;
12437;SDS011;6283;51.330;12.374;2022-12-16T09:52:25;27.93;;;14.27;;
12437;SDS011;6283;51.330;12.374;2022-12-16T09:55:22;25.17;;;13.80;;
12437;SDS011;6283;51.330;12.374;2022-12-16T09:58:14;25.60;;;14.33;;
12437;SDS011;6283;51.330;12.374;2022-12-16T10:01:00;26.23;;;14.07;;
12437;SDS011;6283;51.330;12.374;2022-12-16T10:03:44;27.60;;;14.97;;
12437;SDS011;6283;51.330;12.374;2022-12-16T10:15:09;22.43;;;14.23;;
12437;SDS011;6283;51.330;12.374;2022-12-16T10:18:23;27.93;;;15.23;;
12437;SDS011;6283;51.330;12.374;2022-12-16T10:21:33;25.70;;;15.07;;
12437;SDS011;6283;51.330;12.374;2022-12-16T10:27:31;31.43;;;15.33;;
12437;SDS011;6283;51.330;12.374;2022-12-16T10:30:20;28.77;;;15.97;;
12437;SDS011;6283;51.330;12.374;2022-12-16T10:33:06;24.97;;;14.47;;
12437;SDS011;6283;51.330;12.374;2022-12-16T10:35:54;28.63;;;15.47;;
12437;SDS011;6283;51.330;12.374;2022-12-16T10:38:43;27.70;;;15.00;;
12437;SDS011;6283;51.330;12.374;2022-12-16T10:41:31;23.90;;;14.10;;
12437;SDS011;6283;51.330;12.374;2022-12-16T10:44:34;32.47;;;15.80;;
12437;SDS011;6283;51.330;12.374;2022-12-16T10:47:31;30.30;;;15.87;;
12437;SDS011;6283;51.330;12.374;2022-12-16T10:50:15;27.00;;;16.00;;
12437;SDS011;6283;51.330;12.374;2022-12-16T10:53:27;35.10;;;15.80;;
12437;SDS011;6283;51.330;12.374;2022-12-16T10:59:04;28.37;;;14.80;;
12437;SDS011;6283;51.330;12.374;2022-12-16T11:01:59;36.07;;;18.13;;
12437;SDS011;6283;51.330;12.374;2022-12-16T11:04:45;25.00;;;15.33;;
12437;SDS011;6283;51.330;12.374;2022-12-16T11:16:24;30.40;;;16.60;;
12437;SDS011;6283;51.330;12.374;2022-12-16T11:22:18;34.97;;;17.03;;
12437;SDS011;6283;51.330;12.374;2022-12-16T11:25:05;31.27;;;16.97;;
12437;SDS011;6283;51.330;12.374;2022-12-16T11:30:57;31.13;;;17.73;;
12437;SDS011;6283;51.330;12.374;2022-12-16T11:33:45;32.43;;;17.00;;
12437;SDS011;6283;51.330;12.374;2022-12-16T11:36:31;30.93;;;18.20;;
12437;SDS011;6283;51.330;12.374;2022-12-16T11:39:19;33.57;;;18.80;;
12437;SDS011;6283;51.330;12.374;2022-12-16T11:42:06;31.27;;;18.43;;
12437;SDS011;6283;51.330;12.374;2022-12-16T11:44:58;35.63;;;17.90;;
12437;SDS011;6283;51.330;12.374;2022-12-16T11:47:45;32.37;;;18.00;;
12437;SDS011;6283;51.330;12.374;2022-12-16T11:50:38;32.80;;;17.87;;
12437;SDS011;6283;51.330;12.374;2022-12-16T11:56:52;41.27;;;19.27;;
12437;SDS011;6283;51.330;12.374;2022-12-16T11:59:39;31.67;;;17.87;;
12437;SDS011;6283;51.330;12.374;2022-12-16T12:02:43;33.53;;;16.93;;
12437;SDS011;6283;51.330;12.374;2022-12-16T12:11:48;33.97;;;18.57;;
12437;SDS011;6283;51.330;12.374;2022-12-16T12:14:48;36.07;;;20.17;;
12437;SDS011;6283;51.330;12.374;2022-12-16T12:17:46;37.00;;;17.97;;
12437;SDS011;6283;51.330;12.374;2022-12-16T12:23:27;38.60;;;18.23;;
12437;SDS011;6283;51.330;12.374;2022-12-16T12:26:32;36.87;;;20.10;;
12437;SDS011;6283;51.330;12.374;2022-12-16T12:32:24;43.63;;;21.87;;
12437;SDS011;6283;51.330;12.374;2022-12-16T12:38:11;37.50;;;19.23;;
12437;SDS011;6283;51.330;12.374;2022-12-16T12:46:47;45.00;;;22.50;;
12437;SDS011;6283;51.330;12.374;2022-12-16T12:49:45;38.47;;;20.83;;
12437;SDS011;6283;51.330;12.374;2022-12-16T12:55:22;34.63;;;20.27;;
12437;SDS011;6283;51.330;12.374;2022-12-16T12:58:13;34.63;;;20.23;;
12437;SDS011;6283;51.330;12.374;2022-12-16T13:01:00;37.87;;;20.53;;
12437;SDS011;6283;51.330;12.374;2022-12-16T13:04:08;38.43;;;21.93;;
12437;SDS011;6283;51.330;12.374;2022-12-16T13:06:57;35.23;;;21.40;;
12437;SDS011;6283;51.330;12.374;2022-12-16T13:09:43;36.27;;;20.10;;
12437;SDS011;6283;51.330;12.374;2022-12-16T13:12:31;33.13;;;20.93;;
12437;SDS011;6283;51.330;12.374;2022-12-16T13:15:18;35.97;;;20.53;;
12437;SDS011;6283;51.330;12.374;2022-12-16T13:23:33;32.53;;;20.00;;
12437;SDS011;6283;51.330;12.374;2022-12-16T13:26:22;41.77;;;22.93;;
12437;SDS011;6283;51.330;12.374;2022-12-16T13:35:13;35.47;;;20.80;;
12437;SDS011;6283;51.330;12.374;2022-12-16T13:52:20;36.80;;;22.50;;
12437;SDS011;6283;51.330;12.374;2022-12-16T13:55:29;35.30;;;20.63;;
12437;SDS011;6283;51.330;12.374;2022-12-16T13:58:51;37.20;;;20.70;;
12437;SDS011;6283;51.330;12.374;2022-12-16T14:01:43;39.33;;;21.03;;
12437;SDS011;6283;51.330;12.374;2022-12-16T14:04:32;38.07;;;21.73;;
12437;SDS011;6283;51.330;12.374;2022-12-16T14:07:23;37.37;;;20.83;;
12437;SDS011;6283;51.330;12.374;2022-12-16T14:26:13;43.17;;;23.87;;
12437;SDS011;6283;51.330;12.374;2022-12-16T14:28:59;45.83;;;24.03;;
12437;SDS011;6283;51.330;12.374;2022-12-16T14:31:44;52.17;;;24.47;;
12437;SDS011;6283;51.330;12.374;2022-12-16T14:34:30;52.47;;;26.33;;
12437;SDS011;6283;51.330;12.374;2022-12-16T14:40:01;51.13;;;27.23;;
12437;SDS011;6283;51.330;12.374;2022-12-16T14:42:48;52.83;;;25.53;;
12437;SDS011;6283;51.330;12.374;2022-12-16T14:45:35;52.47;;;25.93;;
12437;SDS011;6283;51.330;12.374;2022-12-16T14:57:28;52.07;;;23.17;;
12437;SDS011;6283;51.330;12.374;2022-12-16T15:03:05;44.37;;;24.47;;
12437;SDS011;6283;51.330;12.374;2022-12-16T15:05:53;49.60;;;24.27;;
12437;SDS011;6283;51.330;12.374;2022-12-16T15:08:42;49.63;;;25.50;;
12437;SDS011;6283;51.330;12.374;2022-12-16T15:11:33;48.53;;;23.10;;
12437;SDS011;6283;51.330;12.374;2022-12-16T15:14:20;51.93;;;24.97;;
12437;SDS011;6283;51.330;12.374;2022-12-16T15:20:08;47.60;;;23.70;;
12437;SDS011;6283;51.330;12.374;2022-12-16T15:23:01;47.57;;;24.63;;
12437;SDS011;6283;51.330;12.374;2022-12-16T15:25:49;48.87;;;24.67;;
12437;SDS011;6283;51.330;12.374;2022-12-16T15:28:39;46.33;;;23.87;;
12437;SDS011;6283;51.330;12.374;2022-12-16T15:31:26;44.30;;;23.07;;
12437;SDS011;6283;51.330;12.374;2022-12-16T15:34:28;52.20;;;24.30;;
12437;SDS011;6283;51.330;12.374;2022-12-16T15:40:02;48.80;;;24.33;;
12437;SDS011;6283;51.330;12.374;2022-12-16T15:42:50;45.87;;;23.33;;
12437;SDS011;6283;51.330;12.374;2022-12-16T15:45:35;47.30;;;24.17;;
12437;SDS011;6283;51.330;12.374;2022-12-16T15:48:29;43.97;;;22.20;;
12437;SDS011;6283;51.330;12.374;2022-12-16T15:54:12;42.57;;;22.73;;
12437;SDS011;6283;51.330;12.374;2022-12-16T15:57:01;41.50;;;21.83;;
12437;SDS011;6283;51.330;12.374;2022-12-16T15:59:57;44.57;;;21.83;;
12437;SDS011;6283;51.330;12.374;2022-12-16T16:02:49;43.33;;;21.23;;
12437;SDS011;6283;51.330;12.374;2022-12-16T16:05:34;38.33;;;20.97;;
12437;SDS011;6283;51.330;12.374;2022-12-16T16:08:18;41.27;;;22.93;;
12437;SDS011;6283;51.330;12.374;2022-12-16T16:11:03;47.23;;;23.70;;
12437;SDS011;6283;51.330;12.374;2022-12-16T16:13:48;42.10;;;20.87;;
12437;SDS011;6283;51.330;12.374;2022-12-16T16:16:32;42.73;;;21.70;;
12437;SDS011;6283;51.330;12.374;2022-12-16T16:19:19;43.83;;;21.63;;
12437;SDS011;6283;51.330;12.374;2022-12-16T16:22:10;42.13;;;22.20;;
12437;SDS011;6283;51.330;12.374;2022-12-16T16:24:55;41.03;;;21.27;;
12437;SDS011;6283;51.330;12.374;2022-12-16T16:27:40;39.37;;;20.10;;
12437;SDS011;6283;51.330;12.374;2022-12-16T16:30:25;44.63;;;22.50;;
12437;SDS011;6283;51.330;12.374;2022-12-16T16:33:09;40.30;;;21.73;;
12437;SDS011;6283;51.330;12.374;2022-12-16T16:35:53;39.23;;;21.30;;
12437;SDS011;6283;51.330;12.374;2022-12-16T16:38:37;40.30;;;21.80;;
12437;SDS011;6283;51.330;12.374;2022-12-16T16:41:21;43.77;;;21.93;;
12437;SDS011;6283;51.330;12.374;2022-12-16T16:44:05;43.07;;;21.97;;
12437;SDS011;6283;51.330;12.374;2022-12-16T16:46:49;47.57;;;23.43;;
12437;SDS011;6283;51.330;12.374;2022-12-16T16:49:35;44.73;;;22.70;;
12437;SDS011;6283;51.330;12.374;2022-12-16T16:52:25;37.60;;;22.07;;
12437;SDS011;6283;51.330;12.374;2022-12-16T16:55:14;40.20;;;22.33;;
12437;SDS011;6283;51.330;12.374;2022-12-16T16:58:09;43.57;;;22.50;;
12437;SDS011;6283;51.330;12.374;2022-12-16T17:01:15;39.63;;;21.67;;
12437;SDS011;6283;51.330;12.374;2022-12-16T17:04:02;43.00;;;22.77;;
12437;SDS011;6283;51.330;12.374;2022-12-16T17:06:47;42.30;;;21.40;;
12437;SDS011;6283;51.330;12.374;2022-12-16T17:09:31;42.40;;;22.33;;
12437;SDS011;6283;51.330;12.374;2022-12-16T17:12:17;38.37;;;22.13;;
12437;SDS011;6283;51.330;12.374;2022-12-16T17:15:20;40.43;;;22.60;;
12437;SDS011;6283;51.330;12.374;2022-12-16T17:18:07;39.97;;;22.00;;
12437;SDS011;6283;51.330;12.374;2022-12-16T17:20:51;46.67;;;24.47;;
12437;SDS011;6283;51.330;12.374;2022-12-16T17:23:36;41.47;;;22.27;;
12437;SDS011;6283;51.330;12.374;2022-12-16T17:26:20;37.47;;;22.43;;
12437;SDS011;6283;51.330;12.374;2022-12-16T17:29:05;50.47;;;26.10;;
12437;SDS011;6283;51.330;12.374;2022-12-16T17:32:01;36.37;;;21.33;;
12437;SDS011;6283;51.330;12.374;2022-12-16T17:34:46;38.97;;;22.13;;
12437;SDS011;6283;51.330;12.374;2022-12-16T17:37:30;37.40;;;20.47;;
12437;SDS011;6283;51.330;12.374;2022-12-16T17:40:15;36.43;;;20.53;;
12437;SDS011;6283;51.330;12.374;2022-12-16T17:43:04;40.43;;;22.30;;
12437;SDS011;6283;51.330;12.374;2022-12-16T17:45:55;44.63;;;22.23;;
12437;SDS011;6283;51.330;12.374;2022-12-16T17:48:44;45.87;;;23.17;;
12437;SDS011;6283;51.330;12.374;2022-12-16T17:51:32;48.63;;;24.50;;
12437;SDS011;6283;51.330;12.374;2022-12-16T17:54:16;47.03;;;24.80;;
12437;SDS011;6283;51.330;12.374;2022-12-16T17:57:00;46.27;;;25.93;;
12437;SDS011;6283;51.330;12.374;2022-12-16T17:59:44;48.60;;;24.17;;
12437;SDS011;6283;51.330;12.374;2022-12-16T18:02:29;45.03;;;24.13;;
12437;SDS011;6283;51.330;12.374;2022-12-16T18:05:13;46.20;;;22.90;;
12437;SDS011;6283;51.330;12.374;2022-12-16T18:07:57;44.27;;;23.30;;
12437;SDS011;6283;51.330;12.374;2022-12-16T18:10:41;41.77;;;23.50;;
12437;SDS011;6283;51.330;12.374;2022-12-16T18:13:25;46.27;;;23.77;;
12437;SDS011;6283;51.330;12.374;2022-12-16T18:16:09;46.87;;;25.03;;
12437;SDS011;6283;51.330;12.374;2022-12-16T18:18:53;43.77;;;25.53;;
12437;SDS011;6283;51.330;12.374;2022-12-16T18:21:37;44.73;;;24.53;;
12437;SDS011;6283;51.330;12.374;2022-12-16T18:24:22;46.47;;;25.57;;
12437;SDS011;6283;51.330;12.374;2022-12-16T18:27:06;52.83;;;27.90;;
12437;SDS011;6283;51.330;12.374;2022-12-16T18:29:50;55.40;;;28.43;;
12437;SDS011;6283;51.330;12.374;2022-12-16T18:32:34;53.97;;;27.77;;